<?xml version="1.0" encoding="UTF-8" standalone="no" ?>
<gpx xmlns="http://www.topografix.com/GPX/1/1" xmlns:xsi="http://www.w3.org/2001/XMLSchema-instance" xsi:schemaLocation="http://www.topografix.com/GPX/1/1 http://www.topografix.com/GPX/1/1/gpx.xsd" version="1.1" creator="VisuGPX - https://www.visugpx.com">
  <metadata>
    <name>Bruxelles-Kaliningrad 22: Słupsk -&amp;gt; Łupawsko</name>
  </metadata>
  <trk>
    <name><![CDATA[Day 22: Słupsk -> Łupawsko]]></name>
    <extensions>
      <line xmlns="http://www.topografix.com/GPX/gpx_style/0/2">
        <color>0000FF</color>
        <width>4</width>
      </line>
    </extensions>
    <trkseg>
      <trkpt lat="54.4702" lon="17.03294">
        <ele>18.444948</ele>
        <time>2024-07-31T20:30:42.530Z</time>
      </trkpt>
      <trkpt lat="54.47007" lon="17.03229">
        <ele>18.444948</ele>
        <time>2024-07-31T20:30:50.337Z</time>
      </trkpt>
      <trkpt lat="54.47001" lon="17.03233">
        <ele>18.444948</ele>
        <time>2024-07-31T20:30:51.484Z</time>
      </trkpt>
      <trkpt lat="54.46942" lon="17.03268">
        <ele>18.35071</ele>
        <time>2024-07-31T20:31:03.280Z</time>
      </trkpt>
      <trkpt lat="54.46827" lon="17.03336">
        <ele>17.720585</ele>
        <time>2024-07-31T20:31:25.237Z</time>
      </trkpt>
      <trkpt lat="54.46806" lon="17.03349">
        <ele>17.599636</ele>
        <time>2024-07-31T20:31:29.382Z</time>
      </trkpt>
      <trkpt lat="54.46793" lon="17.03343">
        <ele>17.530177</ele>
        <time>2024-07-31T20:31:36.690Z</time>
      </trkpt>
      <trkpt lat="54.46766" lon="17.03357">
        <ele>17.460584</ele>
        <time>2024-07-31T20:31:50.364Z</time>
      </trkpt>
      <trkpt lat="54.46736" lon="17.03374">
        <ele>17.391916</ele>
        <time>2024-07-31T20:32:06.755Z</time>
      </trkpt>
      <trkpt lat="54.4673" lon="17.03378">
        <ele>17.377783</ele>
        <time>2024-07-31T20:32:10.321Z</time>
      </trkpt>
      <trkpt lat="54.46713" lon="17.03393">
        <ele>17.336424</ele>
        <time>2024-07-31T20:32:19.668Z</time>
      </trkpt>
      <trkpt lat="54.46706" lon="17.03396">
        <ele>17.322088</ele>
        <time>2024-07-31T20:32:22.790Z</time>
      </trkpt>
      <trkpt lat="54.46702" lon="17.03399">
        <ele>17.311417</ele>
        <time>2024-07-31T20:32:25.198Z</time>
      </trkpt>
      <trkpt lat="54.46698" lon="17.03401">
        <ele>17.303026</ele>
        <time>2024-07-31T20:32:27.161Z</time>
      </trkpt>
      <trkpt lat="54.46678" lon="17.03413">
        <ele>17.256392</ele>
        <time>2024-07-31T20:32:38.605Z</time>
      </trkpt>
      <trkpt lat="54.46605" lon="17.03455">
        <ele>17.104846</ele>
        <time>2024-07-31T20:33:17.636Z</time>
      </trkpt>
      <trkpt lat="54.46596" lon="17.03463">
        <ele>17.091474</ele>
        <time>2024-07-31T20:33:22.738Z</time>
      </trkpt>
      <trkpt lat="54.46587" lon="17.03469">
        <ele>17.078975</ele>
        <time>2024-07-31T20:33:28.154Z</time>
      </trkpt>
      <trkpt lat="54.46585" lon="17.03484">
        <ele>17.067586</ele>
        <time>2024-07-31T20:33:30.647Z</time>
      </trkpt>
      <trkpt lat="54.46572" lon="17.03504">
        <ele>17.044973</ele>
        <time>2024-07-31T20:33:33.864Z</time>
      </trkpt>
      <trkpt lat="54.46547" lon="17.03541">
        <ele>17.001241</ele>
        <time>2024-07-31T20:33:40.457Z</time>
      </trkpt>
      <trkpt lat="54.46525" lon="17.03576">
        <ele>16.961994</ele>
        <time>2024-07-31T20:33:47.150Z</time>
      </trkpt>
      <trkpt lat="54.46519" lon="17.03585">
        <ele>16.952517</ele>
        <time>2024-07-31T20:33:48.372Z</time>
      </trkpt>
      <trkpt lat="54.465" lon="17.03637">
        <ele>16.905524</ele>
        <time>2024-07-31T20:33:55.017Z</time>
      </trkpt>
      <trkpt lat="54.46509" lon="17.03661">
        <ele>16.905544</ele>
        <time>2024-07-31T20:34:03.004Z</time>
      </trkpt>
      <trkpt lat="54.46508" lon="17.03674">
        <ele>16.931649</ele>
        <time>2024-07-31T20:34:05.057Z</time>
      </trkpt>
      <trkpt lat="54.46507" lon="17.03675">
        <ele>16.934997</ele>
        <time>2024-07-31T20:34:05.367Z</time>
      </trkpt>
      <trkpt lat="54.46504" lon="17.0368">
        <ele>16.951118</ele>
        <time>2024-07-31T20:34:06.991Z</time>
      </trkpt>
      <trkpt lat="54.46491" lon="17.03666">
        <ele>17.004544</ele>
        <time>2024-07-31T20:34:15.180Z</time>
      </trkpt>
      <trkpt lat="54.46488" lon="17.03656">
        <ele>17.028506</ele>
        <time>2024-07-31T20:34:17.248Z</time>
      </trkpt>
      <trkpt lat="54.46486" lon="17.03651">
        <ele>17.040223</ele>
        <time>2024-07-31T20:34:18.955Z</time>
      </trkpt>
      <trkpt lat="54.46466" lon="17.03594">
        <ele>17.177659</ele>
        <time>2024-07-31T20:34:28.054Z</time>
      </trkpt>
      <trkpt lat="54.4646" lon="17.03579">
        <ele>17.21467</ele>
        <time>2024-07-31T20:34:30.637Z</time>
      </trkpt>
      <trkpt lat="54.46459" lon="17.03576">
        <ele>17.221778</ele>
        <time>2024-07-31T20:34:31.031Z</time>
      </trkpt>
      <trkpt lat="54.46457" lon="17.03572">
        <ele>17.232454</ele>
        <time>2024-07-31T20:34:31.714Z</time>
      </trkpt>
      <trkpt lat="54.46441" lon="17.03543">
        <ele>17.31336</ele>
        <time>2024-07-31T20:34:36.694Z</time>
      </trkpt>
      <trkpt lat="54.46411" lon="17.03502">
        <ele>17.449998</ele>
        <time>2024-07-31T20:34:46.436Z</time>
      </trkpt>
      <trkpt lat="54.46409" lon="17.03499">
        <ele>17.459603</ele>
        <time>2024-07-31T20:34:47.258Z</time>
      </trkpt>
      <trkpt lat="54.46406" lon="17.03506">
        <ele>17.475837</ele>
        <time>2024-07-31T20:34:48.318Z</time>
      </trkpt>
      <trkpt lat="54.46404" lon="17.0351">
        <ele>17.485437</ele>
        <time>2024-07-31T20:34:48.941Z</time>
      </trkpt>
      <trkpt lat="54.46401" lon="17.03517">
        <ele>17.504296</ele>
        <time>2024-07-31T20:34:50.006Z</time>
      </trkpt>
      <trkpt lat="54.464" lon="17.03521">
        <ele>17.513557</ele>
        <time>2024-07-31T20:34:50.499Z</time>
      </trkpt>
      <trkpt lat="54.46398" lon="17.03526">
        <ele>17.526806</ele>
        <time>2024-07-31T20:34:51.517Z</time>
      </trkpt>
      <trkpt lat="54.46393" lon="17.03538">
        <ele>17.585024</ele>
        <time>2024-07-31T20:34:53.854Z</time>
      </trkpt>
      <trkpt lat="54.46383" lon="17.03553">
        <ele>17.671618</ele>
        <time>2024-07-31T20:34:57.411Z</time>
      </trkpt>
      <trkpt lat="54.46318" lon="17.03685">
        <ele>18.357936</ele>
        <time>2024-07-31T20:35:23.247Z</time>
      </trkpt>
      <trkpt lat="54.46304" lon="17.03708">
        <ele>18.489355</ele>
        <time>2024-07-31T20:35:28.414Z</time>
      </trkpt>
      <trkpt lat="54.46255" lon="17.03785">
        <ele>18.735738</ele>
        <time>2024-07-31T20:35:43.401Z</time>
      </trkpt>
      <trkpt lat="54.46253" lon="17.03787">
        <ele>18.734786</ele>
        <time>2024-07-31T20:35:43.846Z</time>
      </trkpt>
      <trkpt lat="54.462" lon="17.0384">
        <ele>18.709258</ele>
        <time>2024-07-31T20:35:57.114Z</time>
      </trkpt>
      <trkpt lat="54.46186" lon="17.03848">
        <ele>18.702883</ele>
        <time>2024-07-31T20:36:00.212Z</time>
      </trkpt>
      <trkpt lat="54.46175" lon="17.03849">
        <ele>18.69852</ele>
        <time>2024-07-31T20:36:02.685Z</time>
      </trkpt>
      <trkpt lat="54.46144" lon="17.03846">
        <ele>18.685273</ele>
        <time>2024-07-31T20:36:09.233Z</time>
      </trkpt>
      <trkpt lat="54.46094" lon="17.03829">
        <ele>18.574045</ele>
        <time>2024-07-31T20:36:18.150Z</time>
      </trkpt>
      <trkpt lat="54.46039" lon="17.03796">
        <ele>18.283465</ele>
        <time>2024-07-31T20:36:28.290Z</time>
      </trkpt>
      <trkpt lat="54.46038" lon="17.03802">
        <ele>18.263414</ele>
        <time>2024-07-31T20:36:29.301Z</time>
      </trkpt>
      <trkpt lat="54.46031" lon="17.03849">
        <ele>18.122291</ele>
        <time>2024-07-31T20:36:34.491Z</time>
      </trkpt>
      <trkpt lat="54.46025" lon="17.03891">
        <ele>17.996416</ele>
        <time>2024-07-31T20:36:39.032Z</time>
      </trkpt>
      <trkpt lat="54.46023" lon="17.03899">
        <ele>17.973021</ele>
        <time>2024-07-31T20:36:40.017Z</time>
      </trkpt>
      <trkpt lat="54.46018" lon="17.03944">
        <ele>17.83852</ele>
        <time>2024-07-31T20:36:45.089Z</time>
      </trkpt>
      <trkpt lat="54.46014" lon="17.04007">
        <ele>17.91511</ele>
        <time>2024-07-31T20:36:52.650Z</time>
      </trkpt>
      <trkpt lat="54.46013" lon="17.04018">
        <ele>17.95182</ele>
        <time>2024-07-31T20:36:54.650Z</time>
      </trkpt>
      <trkpt lat="54.4601" lon="17.04045">
        <ele>18.044083</ele>
        <time>2024-07-31T20:36:59.296Z</time>
      </trkpt>
      <trkpt lat="54.46009" lon="17.04052">
        <ele>18.070922</ele>
        <time>2024-07-31T20:37:00.469Z</time>
      </trkpt>
      <trkpt lat="54.46007" lon="17.0407">
        <ele>18.130143</ele>
        <time>2024-07-31T20:37:03.354Z</time>
      </trkpt>
      <trkpt lat="54.46004" lon="17.041">
        <ele>18.236488</ele>
        <time>2024-07-31T20:37:09.055Z</time>
      </trkpt>
      <trkpt lat="54.45986" lon="17.0417">
        <ele>18.492141</ele>
        <time>2024-07-31T20:37:33.451Z</time>
      </trkpt>
      <trkpt lat="54.45975" lon="17.04208">
        <ele>18.636479</ele>
        <time>2024-07-31T20:37:48.193Z</time>
      </trkpt>
      <trkpt lat="54.45966" lon="17.04229">
        <ele>18.725584</ele>
        <time>2024-07-31T20:37:57.239Z</time>
      </trkpt>
      <trkpt lat="54.4596" lon="17.04244">
        <ele>18.788785</ele>
        <time>2024-07-31T20:38:04.028Z</time>
      </trkpt>
      <trkpt lat="54.45949" lon="17.04259">
        <ele>18.906083</ele>
        <time>2024-07-31T20:38:12.178Z</time>
      </trkpt>
      <trkpt lat="54.45944" lon="17.04263">
        <ele>18.969352</ele>
        <time>2024-07-31T20:38:15.765Z</time>
      </trkpt>
      <trkpt lat="54.45932" lon="17.04273">
        <ele>19.10164</ele>
        <time>2024-07-31T20:38:23.278Z</time>
      </trkpt>
      <trkpt lat="54.45907" lon="17.04279">
        <ele>19.362275</ele>
        <time>2024-07-31T20:38:37.434Z</time>
      </trkpt>
      <trkpt lat="54.45897" lon="17.04282">
        <ele>19.474136</ele>
        <time>2024-07-31T20:38:43.387Z</time>
      </trkpt>
      <trkpt lat="54.45896" lon="17.04294">
        <ele>19.544663</ele>
        <time>2024-07-31T20:38:48.071Z</time>
      </trkpt>
      <trkpt lat="54.45904" lon="17.04295">
        <ele>19.626347</ele>
        <time>2024-07-31T20:38:49.604Z</time>
      </trkpt>
      <trkpt lat="54.45903" lon="17.04309">
        <ele>19.713557</ele>
        <time>2024-07-31T20:38:54.400Z</time>
      </trkpt>
      <trkpt lat="54.45895" lon="17.04445">
        <ele>20.54159</ele>
        <time>2024-07-31T20:39:40.154Z</time>
      </trkpt>
      <trkpt lat="54.45889" lon="17.04545">
        <ele>21.74577</ele>
        <time>2024-07-31T20:40:15.075Z</time>
      </trkpt>
      <trkpt lat="54.45878" lon="17.04734">
        <ele>24.388824</ele>
        <time>2024-07-31T20:41:24.551Z</time>
      </trkpt>
      <trkpt lat="54.45868" lon="17.04918">
        <ele>29.368109</ele>
        <time>2024-07-31T20:42:50.206Z</time>
      </trkpt>
      <trkpt lat="54.45867" lon="17.04926">
        <ele>29.592796</ele>
        <time>2024-07-31T20:42:52.363Z</time>
      </trkpt>
      <trkpt lat="54.45866" lon="17.04974">
        <ele>31.102763</ele>
        <time>2024-07-31T20:43:09.748Z</time>
      </trkpt>
      <trkpt lat="54.45868" lon="17.05014">
        <ele>32.323502</ele>
        <time>2024-07-31T20:43:23.242Z</time>
      </trkpt>
      <trkpt lat="54.45869" lon="17.05026">
        <ele>32.72137</ele>
        <time>2024-07-31T20:43:27.844Z</time>
      </trkpt>
      <trkpt lat="54.4587" lon="17.05156">
        <ele>37.104617</ele>
        <time>2024-07-31T20:44:09.946Z</time>
      </trkpt>
      <trkpt lat="54.45858" lon="17.05155">
        <ele>37.825585</ele>
        <time>2024-07-31T20:44:16.737Z</time>
      </trkpt>
      <trkpt lat="54.45859" lon="17.05183">
        <ele>38.844863</ele>
        <time>2024-07-31T20:44:27.894Z</time>
      </trkpt>
      <trkpt lat="54.45854" lon="17.05473">
        <ele>48.467103</ele>
        <time>2024-07-31T20:46:13.781Z</time>
      </trkpt>
      <trkpt lat="54.45852" lon="17.05503">
        <ele>49.3196</ele>
        <time>2024-07-31T20:46:24.230Z</time>
      </trkpt>
      <trkpt lat="54.45839" lon="17.05566">
        <ele>51.18166</ele>
        <time>2024-07-31T20:46:55.364Z</time>
      </trkpt>
      <trkpt lat="54.45824" lon="17.05636">
        <ele>53.256019</ele>
        <time>2024-07-31T20:47:28.758Z</time>
      </trkpt>
      <trkpt lat="54.45821" lon="17.05648">
        <ele>53.608427</ele>
        <time>2024-07-31T20:47:34.248Z</time>
      </trkpt>
      <trkpt lat="54.45818" lon="17.05648">
        <ele>53.766222</ele>
        <time>2024-07-31T20:47:36.764Z</time>
      </trkpt>
      <trkpt lat="54.45817" lon="17.05999">
        <ele>57.635815</ele>
        <time>2024-07-31T20:48:39.488Z</time>
      </trkpt>
      <trkpt lat="54.45817" lon="17.06017">
        <ele>57.641335</ele>
        <time>2024-07-31T20:48:41.290Z</time>
      </trkpt>
      <trkpt lat="54.45833" lon="17.06023">
        <ele>57.649984</ele>
        <time>2024-07-31T20:48:44.690Z</time>
      </trkpt>
      <trkpt lat="54.45861" lon="17.06022">
        <ele>57.665197</ele>
        <time>2024-07-31T20:48:49.994Z</time>
      </trkpt>
      <trkpt lat="54.45871" lon="17.06022">
        <ele>57.670752</ele>
        <time>2024-07-31T20:48:52.102Z</time>
      </trkpt>
      <trkpt lat="54.4591" lon="17.06022">
        <ele>57.691678</ele>
        <time>2024-07-31T20:48:59.530Z</time>
      </trkpt>
      <trkpt lat="54.45963" lon="17.06027">
        <ele>57.720346</ele>
        <time>2024-07-31T20:49:09.502Z</time>
      </trkpt>
      <trkpt lat="54.45963" lon="17.06033">
        <ele>57.722227</ele>
        <time>2024-07-31T20:49:14.919Z</time>
      </trkpt>
      <trkpt lat="54.45968" lon="17.06048">
        <ele>57.740482</ele>
        <time>2024-07-31T20:49:30.507Z</time>
      </trkpt>
      <trkpt lat="54.45971" lon="17.06068">
        <ele>57.821503</ele>
        <time>2024-07-31T20:49:49.401Z</time>
      </trkpt>
      <trkpt lat="54.45958" lon="17.06126">
        <ele>58.060624</ele>
        <time>2024-07-31T20:50:45.909Z</time>
      </trkpt>
      <trkpt lat="54.45921" lon="17.06281">
        <ele>58.70083</ele>
        <time>2024-07-31T20:51:10.670Z</time>
      </trkpt>
      <trkpt lat="54.45904" lon="17.06338">
        <ele>58.985022</ele>
        <time>2024-07-31T20:51:21.249Z</time>
      </trkpt>
      <trkpt lat="54.4579" lon="17.06604">
        <ele>61.700724</ele>
        <time>2024-07-31T20:52:17.211Z</time>
      </trkpt>
      <trkpt lat="54.45676" lon="17.06848">
        <ele>63.700974</ele>
        <time>2024-07-31T20:53:07.325Z</time>
      </trkpt>
      <trkpt lat="54.45529" lon="17.07178">
        <ele>62.742674</ele>
        <time>2024-07-31T20:54:00.492Z</time>
      </trkpt>
      <trkpt lat="54.453" lon="17.07685">
        <ele>54.514579</ele>
        <time>2024-07-31T20:54:55.370Z</time>
      </trkpt>
      <trkpt lat="54.45284" lon="17.07726">
        <ele>53.654804</ele>
        <time>2024-07-31T20:54:59.451Z</time>
      </trkpt>
      <trkpt lat="54.45261" lon="17.07788">
        <ele>52.380046</ele>
        <time>2024-07-31T20:55:05.478Z</time>
      </trkpt>
      <trkpt lat="54.45257" lon="17.07793">
        <ele>52.251266</ele>
        <time>2024-07-31T20:55:06.088Z</time>
      </trkpt>
      <trkpt lat="54.45253" lon="17.07791">
        <ele>52.103783</ele>
        <time>2024-07-31T20:55:06.785Z</time>
      </trkpt>
      <trkpt lat="54.45247" lon="17.07804">
        <ele>51.806687</ele>
        <time>2024-07-31T20:55:08.063Z</time>
      </trkpt>
      <trkpt lat="54.45243" lon="17.07815">
        <ele>51.543951</ele>
        <time>2024-07-31T20:55:09.115Z</time>
      </trkpt>
      <trkpt lat="54.45187" lon="17.07933">
        <ele>48.472825</ele>
        <time>2024-07-31T20:55:21.390Z</time>
      </trkpt>
      <trkpt lat="54.45131" lon="17.08032">
        <ele>45.690912</ele>
        <time>2024-07-31T20:55:32.658Z</time>
      </trkpt>
      <trkpt lat="54.45129" lon="17.08036">
        <ele>45.588797</ele>
        <time>2024-07-31T20:55:33.145Z</time>
      </trkpt>
      <trkpt lat="54.45123" lon="17.08049">
        <ele>45.313849</ele>
        <time>2024-07-31T20:55:34.483Z</time>
      </trkpt>
      <trkpt lat="54.45121" lon="17.08053">
        <ele>45.213482</ele>
        <time>2024-07-31T20:55:34.956Z</time>
      </trkpt>
      <trkpt lat="54.45127" lon="17.08064">
        <ele>44.958423</ele>
        <time>2024-07-31T20:55:36.194Z</time>
      </trkpt>
      <trkpt lat="54.45128" lon="17.0808">
        <ele>44.672586</ele>
        <time>2024-07-31T20:55:37.573Z</time>
      </trkpt>
      <trkpt lat="54.45099" lon="17.08143">
        <ele>43.312549</ele>
        <time>2024-07-31T20:55:44.198Z</time>
      </trkpt>
      <trkpt lat="54.45067" lon="17.08209">
        <ele>41.839471</ele>
        <time>2024-07-31T20:55:51.435Z</time>
      </trkpt>
      <trkpt lat="54.44987" lon="17.08375">
        <ele>38.624121</ele>
        <time>2024-07-31T20:56:10.019Z</time>
      </trkpt>
      <trkpt lat="54.4496" lon="17.08403">
        <ele>37.888937</ele>
        <time>2024-07-31T20:56:14.647Z</time>
      </trkpt>
      <trkpt lat="54.4493" lon="17.08452">
        <ele>36.910595</ele>
        <time>2024-07-31T20:56:20.835Z</time>
      </trkpt>
      <trkpt lat="54.44919" lon="17.08476">
        <ele>36.489614</ele>
        <time>2024-07-31T20:56:23.469Z</time>
      </trkpt>
      <trkpt lat="54.44899" lon="17.08517">
        <ele>35.923285</ele>
        <time>2024-07-31T20:56:28.270Z</time>
      </trkpt>
      <trkpt lat="54.44869" lon="17.08578">
        <ele>35.218998</ele>
        <time>2024-07-31T20:56:35.668Z</time>
      </trkpt>
      <trkpt lat="54.44817" lon="17.08685">
        <ele>33.997103</ele>
        <time>2024-07-31T20:56:48.728Z</time>
      </trkpt>
      <trkpt lat="54.448" lon="17.08724">
        <ele>33.567004</ele>
        <time>2024-07-31T20:56:53.519Z</time>
      </trkpt>
      <trkpt lat="54.44796" lon="17.08744">
        <ele>33.473308</ele>
        <time>2024-07-31T20:56:55.500Z</time>
      </trkpt>
      <trkpt lat="54.4477" lon="17.08807">
        <ele>33.322382</ele>
        <time>2024-07-31T20:57:03.425Z</time>
      </trkpt>
      <trkpt lat="54.44755" lon="17.08853">
        <ele>33.219736</ele>
        <time>2024-07-31T20:57:09.282Z</time>
      </trkpt>
      <trkpt lat="54.44748" lon="17.08867">
        <ele>33.186323</ele>
        <time>2024-07-31T20:57:11.278Z</time>
      </trkpt>
      <trkpt lat="54.44737" lon="17.08885">
        <ele>33.134924</ele>
        <time>2024-07-31T20:57:14.380Z</time>
      </trkpt>
      <trkpt lat="54.44703" lon="17.08979">
        <ele>32.920707</ele>
        <time>2024-07-31T20:57:28.772Z</time>
      </trkpt>
      <trkpt lat="54.44612" lon="17.09237">
        <ele>33.239084</ele>
        <time>2024-07-31T20:58:07.506Z</time>
      </trkpt>
      <trkpt lat="54.44555" lon="17.09391">
        <ele>33.454226</ele>
        <time>2024-07-31T20:58:29.465Z</time>
      </trkpt>
      <trkpt lat="54.44539" lon="17.09412">
        <ele>33.495478</ele>
        <time>2024-07-31T20:58:33.607Z</time>
      </trkpt>
      <trkpt lat="54.44521" lon="17.09483">
        <ele>33.588256</ele>
        <time>2024-07-31T20:58:43.336Z</time>
      </trkpt>
      <trkpt lat="54.44507" lon="17.09517">
        <ele>33.732047</ele>
        <time>2024-07-31T20:58:48.752Z</time>
      </trkpt>
      <trkpt lat="54.44494" lon="17.09542">
        <ele>34.14401</ele>
        <time>2024-07-31T20:58:53.782Z</time>
      </trkpt>
      <trkpt lat="54.44474" lon="17.09569">
        <ele>34.678817</ele>
        <time>2024-07-31T20:59:00.814Z</time>
      </trkpt>
      <trkpt lat="54.44379" lon="17.09644">
        <ele>36.849935</ele>
        <time>2024-07-31T20:59:36.376Z</time>
      </trkpt>
      <trkpt lat="54.44282" lon="17.09719">
        <ele>40.158336</ele>
        <time>2024-07-31T21:00:18.282Z</time>
      </trkpt>
      <trkpt lat="54.44254" lon="17.09754">
        <ele>41.356077</ele>
        <time>2024-07-31T21:00:32.716Z</time>
      </trkpt>
      <trkpt lat="54.4424" lon="17.09782">
        <ele>42.114174</ele>
        <time>2024-07-31T21:00:42.109Z</time>
      </trkpt>
      <trkpt lat="54.44214" lon="17.0987">
        <ele>44.017003</ele>
        <time>2024-07-31T21:01:05.934Z</time>
      </trkpt>
      <trkpt lat="54.44192" lon="17.09921">
        <ele>45.111937</ele>
        <time>2024-07-31T21:01:20.543Z</time>
      </trkpt>
      <trkpt lat="54.4415" lon="17.10014">
        <ele>47.113819</ele>
        <time>2024-07-31T21:01:45.609Z</time>
      </trkpt>
      <trkpt lat="54.44148" lon="17.10019">
        <ele>47.21839</ele>
        <time>2024-07-31T21:01:46.943Z</time>
      </trkpt>
      <trkpt lat="54.44145" lon="17.10026">
        <ele>47.354407</ele>
        <time>2024-07-31T21:01:50.126Z</time>
      </trkpt>
      <trkpt lat="54.44148" lon="17.10032">
        <ele>47.485314</ele>
        <time>2024-07-31T21:01:53.221Z</time>
      </trkpt>
      <trkpt lat="54.44148" lon="17.10033">
        <ele>47.504272</ele>
        <time>2024-07-31T21:01:53.680Z</time>
      </trkpt>
      <trkpt lat="54.44149" lon="17.10039">
        <ele>47.607482</ele>
        <time>2024-07-31T21:01:56.139Z</time>
      </trkpt>
      <trkpt lat="54.44147" lon="17.10043">
        <ele>47.707062</ele>
        <time>2024-07-31T21:01:58.482Z</time>
      </trkpt>
      <trkpt lat="54.44093" lon="17.1016">
        <ele>49.703478</ele>
        <time>2024-07-31T21:02:58.829Z</time>
      </trkpt>
      <trkpt lat="54.44054" lon="17.10216">
        <ele>50.613798</ele>
        <time>2024-07-31T21:03:34.108Z</time>
      </trkpt>
      <trkpt lat="54.4405" lon="17.10221">
        <ele>50.695328</ele>
        <time>2024-07-31T21:03:37.257Z</time>
      </trkpt>
      <trkpt lat="54.44025" lon="17.1027">
        <ele>51.369923</ele>
        <time>2024-07-31T21:04:03.410Z</time>
      </trkpt>
      <trkpt lat="54.4402" lon="17.10284">
        <ele>51.547498</ele>
        <time>2024-07-31T21:04:10.317Z</time>
      </trkpt>
      <trkpt lat="54.44003" lon="17.10329">
        <ele>52.094353</ele>
        <time>2024-07-31T21:04:31.750Z</time>
      </trkpt>
      <trkpt lat="54.44" lon="17.10329">
        <ele>52.141661</ele>
        <time>2024-07-31T21:04:34.000Z</time>
      </trkpt>
      <trkpt lat="54.43986" lon="17.10365">
        <ele>52.50935</ele>
        <time>2024-07-31T21:04:51.310Z</time>
      </trkpt>
      <trkpt lat="54.43983" lon="17.10384">
        <ele>52.682266</ele>
        <time>2024-07-31T21:04:59.494Z</time>
      </trkpt>
      <trkpt lat="54.43939" lon="17.10503">
        <ele>53.890169</ele>
        <time>2024-07-31T21:05:56.388Z</time>
      </trkpt>
      <trkpt lat="54.43937" lon="17.10509">
        <ele>53.953954</ele>
        <time>2024-07-31T21:05:59.430Z</time>
      </trkpt>
      <trkpt lat="54.43923" lon="17.10539">
        <ele>54.276968</ele>
        <time>2024-07-31T21:06:14.640Z</time>
      </trkpt>
      <trkpt lat="54.43907" lon="17.10576">
        <ele>54.679728</ele>
        <time>2024-07-31T21:06:33.625Z</time>
      </trkpt>
      <trkpt lat="54.43903" lon="17.10583">
        <ele>54.792888</ele>
        <time>2024-07-31T21:06:37.329Z</time>
      </trkpt>
      <trkpt lat="54.43899" lon="17.10594">
        <ele>55.001379</ele>
        <time>2024-07-31T21:06:42.505Z</time>
      </trkpt>
      <trkpt lat="54.43895" lon="17.10603">
        <ele>55.193128</ele>
        <time>2024-07-31T21:06:47.258Z</time>
      </trkpt>
      <trkpt lat="54.43881" lon="17.10632">
        <ele>55.802074</ele>
        <time>2024-07-31T21:07:02.382Z</time>
      </trkpt>
      <trkpt lat="54.43868" lon="17.10659">
        <ele>56.382741</ele>
        <time>2024-07-31T21:07:16.817Z</time>
      </trkpt>
      <trkpt lat="54.43854" lon="17.10688">
        <ele>56.994007</ele>
        <time>2024-07-31T21:07:31.972Z</time>
      </trkpt>
      <trkpt lat="54.43784" lon="17.10832">
        <ele>60.083637</ele>
        <time>2024-07-31T21:08:47.621Z</time>
      </trkpt>
      <trkpt lat="54.43711" lon="17.10983">
        <ele>63.770049</ele>
        <time>2024-07-31T21:10:07.145Z</time>
      </trkpt>
      <trkpt lat="54.4368" lon="17.11047">
        <ele>65.322937</ele>
        <time>2024-07-31T21:10:40.628Z</time>
      </trkpt>
      <trkpt lat="54.43632" lon="17.11127">
        <ele>66.778068</ele>
        <time>2024-07-31T21:11:27.263Z</time>
      </trkpt>
      <trkpt lat="54.43585" lon="17.11186">
        <ele>67.963634</ele>
        <time>2024-07-31T21:12:07.620Z</time>
      </trkpt>
      <trkpt lat="54.43587" lon="17.11192">
        <ele>68.037753</ele>
        <time>2024-07-31T21:12:10.165Z</time>
      </trkpt>
      <trkpt lat="54.43561" lon="17.11219">
        <ele>68.651682</ele>
        <time>2024-07-31T21:12:19.462Z</time>
      </trkpt>
      <trkpt lat="54.43424" lon="17.11333">
        <ele>70.26105</ele>
        <time>2024-07-31T21:12:59.914Z</time>
      </trkpt>
      <trkpt lat="54.43422" lon="17.11325">
        <ele>70.299753</ele>
        <time>2024-07-31T21:13:01.394Z</time>
      </trkpt>
      <trkpt lat="54.43484" lon="17.11276">
        <ele>70.658207</ele>
        <time>2024-07-31T21:13:48.673Z</time>
      </trkpt>
      <trkpt lat="54.43422" lon="17.11325">
        <ele>70.415157</ele>
        <time>2024-07-31T21:14:35.951Z</time>
      </trkpt>
      <trkpt lat="54.43424" lon="17.11333">
        <ele>70.398493</ele>
        <time>2024-07-31T21:14:37.164Z</time>
      </trkpt>
      <trkpt lat="54.43425" lon="17.11365">
        <ele>70.33191</ele>
        <time>2024-07-31T21:14:40.639Z</time>
      </trkpt>
      <trkpt lat="54.43433" lon="17.11664">
        <ele>69.472728</ele>
        <time>2024-07-31T21:15:11.238Z</time>
      </trkpt>
      <trkpt lat="54.43439" lon="17.11819">
        <ele>69.069373</ele>
        <time>2024-07-31T21:15:28.030Z</time>
      </trkpt>
      <trkpt lat="54.4345" lon="17.12179">
        <ele>70.032521</ele>
        <time>2024-07-31T21:16:17.892Z</time>
      </trkpt>
      <trkpt lat="54.43469" lon="17.12783">
        <ele>72.978409</ele>
        <time>2024-07-31T21:17:48.486Z</time>
      </trkpt>
      <trkpt lat="54.43474" lon="17.12937">
        <ele>73.729466</ele>
        <time>2024-07-31T21:18:10.726Z</time>
      </trkpt>
      <trkpt lat="54.43472" lon="17.1299">
        <ele>73.990182</ele>
        <time>2024-07-31T21:18:18.530Z</time>
      </trkpt>
      <trkpt lat="54.43454" lon="17.13148">
        <ele>74.558447</ele>
        <time>2024-07-31T21:18:42.658Z</time>
      </trkpt>
      <trkpt lat="54.43459" lon="17.13151">
        <ele>74.587411</ele>
        <time>2024-07-31T21:18:44.430Z</time>
      </trkpt>
      <trkpt lat="54.43447" lon="17.13242">
        <ele>74.872558</ele>
        <time>2024-07-31T21:19:22.132Z</time>
      </trkpt>
      <trkpt lat="54.43433" lon="17.13359">
        <ele>74.993709</ele>
        <time>2024-07-31T21:20:10.452Z</time>
      </trkpt>
      <trkpt lat="54.4343" lon="17.13382">
        <ele>74.891334</ele>
        <time>2024-07-31T21:20:19.827Z</time>
      </trkpt>
      <trkpt lat="54.43408" lon="17.13663">
        <ele>73.510402</ele>
        <time>2024-07-31T21:22:14.369Z</time>
      </trkpt>
      <trkpt lat="54.43375" lon="17.14082">
        <ele>70.267086</ele>
        <time>2024-07-31T21:25:05.314Z</time>
      </trkpt>
      <trkpt lat="54.43366" lon="17.14201">
        <ele>69.60318</ele>
        <time>2024-07-31T21:25:53.914Z</time>
      </trkpt>
      <trkpt lat="54.43351" lon="17.1428">
        <ele>69.453116</ele>
        <time>2024-07-31T21:26:27.236Z</time>
      </trkpt>
      <trkpt lat="54.43347" lon="17.14276">
        <ele>69.475184</ele>
        <time>2024-07-31T21:26:28.490Z</time>
      </trkpt>
      <trkpt lat="54.43308" lon="17.14404">
        <ele>69.866833</ele>
        <time>2024-07-31T21:26:47.827Z</time>
      </trkpt>
      <trkpt lat="54.43277" lon="17.14501">
        <ele>70.166943</ele>
        <time>2024-07-31T21:27:04.239Z</time>
      </trkpt>
      <trkpt lat="54.43257" lon="17.14577">
        <ele>70.726747</ele>
        <time>2024-07-31T21:27:17.412Z</time>
      </trkpt>
      <trkpt lat="54.43222" lon="17.1482">
        <ele>72.572159</ele>
        <time>2024-07-31T21:27:57.443Z</time>
      </trkpt>
      <trkpt lat="54.4318" lon="17.15126">
        <ele>75.7413</ele>
        <time>2024-07-31T21:28:54.958Z</time>
      </trkpt>
      <trkpt lat="54.43122" lon="17.16262">
        <ele>84.306873</ele>
        <time>2024-07-31T21:32:02.992Z</time>
      </trkpt>
      <trkpt lat="54.43029" lon="17.17023">
        <ele>82.96901</ele>
        <time>2024-07-31T21:33:31.936Z</time>
      </trkpt>
      <trkpt lat="54.43016" lon="17.17084">
        <ele>82.198438</ele>
        <time>2024-07-31T21:33:38.017Z</time>
      </trkpt>
      <trkpt lat="54.42871" lon="17.17627">
        <ele>72.180966</ele>
        <time>2024-07-31T21:34:27.366Z</time>
      </trkpt>
      <trkpt lat="54.42817" lon="17.17842">
        <ele>68.167348</ele>
        <time>2024-07-31T21:34:46.613Z</time>
      </trkpt>
      <trkpt lat="54.42801" lon="17.17919">
        <ele>67.20347</ele>
        <time>2024-07-31T21:34:53.532Z</time>
      </trkpt>
      <trkpt lat="54.42784" lon="17.17975">
        <ele>66.448353</ele>
        <time>2024-07-31T21:34:59.162Z</time>
      </trkpt>
      <trkpt lat="54.42728" lon="17.18129">
        <ele>65.100178</ele>
        <time>2024-07-31T21:35:17.277Z</time>
      </trkpt>
      <trkpt lat="54.42724" lon="17.18141">
        <ele>65.09445</ele>
        <time>2024-07-31T21:35:18.744Z</time>
      </trkpt>
      <trkpt lat="54.42603" lon="17.18472">
        <ele>66.141574</ele>
        <time>2024-07-31T21:36:10.229Z</time>
      </trkpt>
      <trkpt lat="54.42575" lon="17.18587">
        <ele>66.994787</ele>
        <time>2024-07-31T21:36:33.183Z</time>
      </trkpt>
      <trkpt lat="54.42552" lon="17.18732">
        <ele>69.102934</ele>
        <time>2024-07-31T21:37:03.455Z</time>
      </trkpt>
      <trkpt lat="54.42538" lon="17.1881">
        <ele>70.337536</ele>
        <time>2024-07-31T21:37:20.879Z</time>
      </trkpt>
      <trkpt lat="54.42465" lon="17.19223">
        <ele>77.178211</ele>
        <time>2024-07-31T21:38:50.789Z</time>
      </trkpt>
      <trkpt lat="54.42451" lon="17.19296">
        <ele>78.590348</ele>
        <time>2024-07-31T21:39:08.338Z</time>
      </trkpt>
      <trkpt lat="54.42443" lon="17.19324">
        <ele>79.144131</ele>
        <time>2024-07-31T21:39:15.396Z</time>
      </trkpt>
      <trkpt lat="54.42404" lon="17.19408">
        <ele>81.121157</ele>
        <time>2024-07-31T21:39:40.503Z</time>
      </trkpt>
      <trkpt lat="54.42344" lon="17.19507">
        <ele>83.498663</ele>
        <time>2024-07-31T21:40:11.608Z</time>
      </trkpt>
      <trkpt lat="54.42331" lon="17.19541">
        <ele>84.125697</ele>
        <time>2024-07-31T21:40:20.246Z</time>
      </trkpt>
      <trkpt lat="54.4232" lon="17.19597">
        <ele>85.02781</ele>
        <time>2024-07-31T21:40:32.395Z</time>
      </trkpt>
      <trkpt lat="54.42307" lon="17.19705">
        <ele>86.725777</ele>
        <time>2024-07-31T21:40:54.511Z</time>
      </trkpt>
      <trkpt lat="54.42298" lon="17.19748">
        <ele>87.338551</ele>
        <time>2024-07-31T21:41:03.137Z</time>
      </trkpt>
      <trkpt lat="54.42243" lon="17.19867">
        <ele>89.128528</ele>
        <time>2024-07-31T21:41:31.793Z</time>
      </trkpt>
      <trkpt lat="54.41964" lon="17.20458">
        <ele>97.3634</ele>
        <time>2024-07-31T21:43:50.764Z</time>
      </trkpt>
      <trkpt lat="54.41894" lon="17.20624">
        <ele>97.917096</ele>
        <time>2024-07-31T21:44:20.024Z</time>
      </trkpt>
      <trkpt lat="54.41886" lon="17.20641">
        <ele>97.973796</ele>
        <time>2024-07-31T21:44:22.629Z</time>
      </trkpt>
      <trkpt lat="54.41758" lon="17.2107">
        <ele>97.068038</ele>
        <time>2024-07-31T21:45:14.300Z</time>
      </trkpt>
      <trkpt lat="54.41646" lon="17.21453">
        <ele>96.418745</ele>
        <time>2024-07-31T21:46:03.651Z</time>
      </trkpt>
      <trkpt lat="54.41623" lon="17.21545">
        <ele>96.277948</ele>
        <time>2024-07-31T21:46:14.995Z</time>
      </trkpt>
      <trkpt lat="54.41557" lon="17.21822">
        <ele>95.569683</ele>
        <time>2024-07-31T21:46:47.930Z</time>
      </trkpt>
      <trkpt lat="54.4152" lon="17.21969">
        <ele>94.768559</ele>
        <time>2024-07-31T21:47:04.973Z</time>
      </trkpt>
      <trkpt lat="54.41408" lon="17.22306">
        <ele>92.225339</ele>
        <time>2024-07-31T21:47:42.596Z</time>
      </trkpt>
      <trkpt lat="54.41368" lon="17.22414">
        <ele>91.259599</ele>
        <time>2024-07-31T21:47:54.436Z</time>
      </trkpt>
      <trkpt lat="54.41248" lon="17.22712">
        <ele>88.918286</ele>
        <time>2024-07-31T21:48:29.398Z</time>
      </trkpt>
      <trkpt lat="54.41239" lon="17.22738">
        <ele>88.804765</ele>
        <time>2024-07-31T21:48:32.567Z</time>
      </trkpt>
      <trkpt lat="54.41216" lon="17.22832">
        <ele>88.421983</ele>
        <time>2024-07-31T21:48:43.660Z</time>
      </trkpt>
      <trkpt lat="54.41126" lon="17.23282">
        <ele>88.069136</ele>
        <time>2024-07-31T21:49:42.548Z</time>
      </trkpt>
      <trkpt lat="54.40813" lon="17.24809">
        <ele>84.792748</ele>
        <time>2024-07-31T21:52:43.185Z</time>
      </trkpt>
      <trkpt lat="54.40792" lon="17.24878">
        <ele>84.461065</ele>
        <time>2024-07-31T21:52:50.613Z</time>
      </trkpt>
      <trkpt lat="54.40783" lon="17.24903">
        <ele>84.335002</ele>
        <time>2024-07-31T21:52:53.428Z</time>
      </trkpt>
      <trkpt lat="54.40724" lon="17.25026">
        <ele>83.67636</ele>
        <time>2024-07-31T21:53:08.974Z</time>
      </trkpt>
      <trkpt lat="54.40714" lon="17.25052">
        <ele>83.548817</ele>
        <time>2024-07-31T21:53:12.154Z</time>
      </trkpt>
      <trkpt lat="54.40702" lon="17.25105">
        <ele>83.316977</ele>
        <time>2024-07-31T21:53:18.086Z</time>
      </trkpt>
      <trkpt lat="54.40693" lon="17.25214">
        <ele>83.013246</ele>
        <time>2024-07-31T21:53:30.750Z</time>
      </trkpt>
      <trkpt lat="54.40686" lon="17.25237">
        <ele>83.094044</ele>
        <time>2024-07-31T21:53:34.388Z</time>
      </trkpt>
      <trkpt lat="54.40677" lon="17.25255">
        <ele>83.164699</ele>
        <time>2024-07-31T21:53:37.463Z</time>
      </trkpt>
      <trkpt lat="54.40513" lon="17.25517">
        <ele>84.213838</ele>
        <time>2024-07-31T21:54:32.758Z</time>
      </trkpt>
      <trkpt lat="54.40502" lon="17.25537">
        <ele>84.27569</ele>
        <time>2024-07-31T21:54:36.090Z</time>
      </trkpt>
      <trkpt lat="54.405" lon="17.25541">
        <ele>84.285992</ele>
        <time>2024-07-31T21:54:36.728Z</time>
      </trkpt>
      <trkpt lat="54.40468" lon="17.25586">
        <ele>84.44179</ele>
        <time>2024-07-31T21:54:45.860Z</time>
      </trkpt>
      <trkpt lat="54.40445" lon="17.25613">
        <ele>84.548413</ele>
        <time>2024-07-31T21:54:51.822Z</time>
      </trkpt>
      <trkpt lat="54.40393" lon="17.25638">
        <ele>84.280162</ele>
        <time>2024-07-31T21:55:03.474Z</time>
      </trkpt>
      <trkpt lat="54.40192" lon="17.25712">
        <ele>81.834576</ele>
        <time>2024-07-31T21:55:39.156Z</time>
      </trkpt>
      <trkpt lat="54.40145" lon="17.25731">
        <ele>80.746209</ele>
        <time>2024-07-31T21:55:46.177Z</time>
      </trkpt>
      <trkpt lat="54.40121" lon="17.25747">
        <ele>80.190385</ele>
        <time>2024-07-31T21:55:49.739Z</time>
      </trkpt>
      <trkpt lat="54.40086" lon="17.25789">
        <ele>79.202623</ele>
        <time>2024-07-31T21:55:55.820Z</time>
      </trkpt>
      <trkpt lat="54.40046" lon="17.25871">
        <ele>77.629748</ele>
        <time>2024-07-31T21:56:04.550Z</time>
      </trkpt>
      <trkpt lat="54.39873" lon="17.2626">
        <ele>72.021829</ele>
        <time>2024-07-31T21:56:49.003Z</time>
      </trkpt>
      <trkpt lat="54.39721" lon="17.26603">
        <ele>71.08814</ele>
        <time>2024-07-31T21:57:35.908Z</time>
      </trkpt>
      <trkpt lat="54.39698" lon="17.26649">
        <ele>71.177824</ele>
        <time>2024-07-31T21:57:44.241Z</time>
      </trkpt>
      <trkpt lat="54.39686" lon="17.26669">
        <ele>71.221368</ele>
        <time>2024-07-31T21:57:48.523Z</time>
      </trkpt>
      <trkpt lat="54.39647" lon="17.26715">
        <ele>71.340381</ele>
        <time>2024-07-31T21:58:00.233Z</time>
      </trkpt>
      <trkpt lat="54.39491" lon="17.26828">
        <ele>72.979052</ele>
        <time>2024-07-31T21:58:44.734Z</time>
      </trkpt>
      <trkpt lat="54.39245" lon="17.27007">
        <ele>76.718723</ele>
        <time>2024-07-31T21:59:58.425Z</time>
      </trkpt>
      <trkpt lat="54.39088" lon="17.27118">
        <ele>80.108751</ele>
        <time>2024-07-31T22:00:57.219Z</time>
      </trkpt>
      <trkpt lat="54.39019" lon="17.27171">
        <ele>81.592564</ele>
        <time>2024-07-31T22:01:22.082Z</time>
      </trkpt>
      <trkpt lat="54.38954" lon="17.27232">
        <ele>82.673609</ele>
        <time>2024-07-31T22:01:43.300Z</time>
      </trkpt>
      <trkpt lat="54.38647" lon="17.27563">
        <ele>83.551489</ele>
        <time>2024-07-31T22:03:03.389Z</time>
      </trkpt>
      <trkpt lat="54.38594" lon="17.2762">
        <ele>83.153719</ele>
        <time>2024-07-31T22:03:14.483Z</time>
      </trkpt>
      <trkpt lat="54.38566" lon="17.27659">
        <ele>82.925318</ele>
        <time>2024-07-31T22:03:20.680Z</time>
      </trkpt>
      <trkpt lat="54.38546" lon="17.27693">
        <ele>82.742772</ele>
        <time>2024-07-31T22:03:25.503Z</time>
      </trkpt>
      <trkpt lat="54.38529" lon="17.27725">
        <ele>82.581696</ele>
        <time>2024-07-31T22:03:29.742Z</time>
      </trkpt>
      <trkpt lat="54.38402" lon="17.2801">
        <ele>81.613193</ele>
        <time>2024-07-31T22:04:06.979Z</time>
      </trkpt>
      <trkpt lat="54.38037" lon="17.28625">
        <ele>85.927765</ele>
        <time>2024-07-31T22:06:20.947Z</time>
      </trkpt>
      <trkpt lat="54.37819" lon="17.28986">
        <ele>88.118582</ele>
        <time>2024-07-31T22:07:35.603Z</time>
      </trkpt>
      <trkpt lat="54.37796" lon="17.29029">
        <ele>88.369853</ele>
        <time>2024-07-31T22:07:44.446Z</time>
      </trkpt>
      <trkpt lat="54.37778" lon="17.29078">
        <ele>88.466032</ele>
        <time>2024-07-31T22:07:53.569Z</time>
      </trkpt>
      <trkpt lat="54.37764" lon="17.29126">
        <ele>88.267755</ele>
        <time>2024-07-31T22:08:01.313Z</time>
      </trkpt>
      <trkpt lat="54.37754" lon="17.2917">
        <ele>88.094267</ele>
        <time>2024-07-31T22:08:07.572Z</time>
      </trkpt>
      <trkpt lat="54.37735" lon="17.29291">
        <ele>87.630425</ele>
        <time>2024-07-31T22:08:20.817Z</time>
      </trkpt>
      <trkpt lat="54.37756" lon="17.29297">
        <ele>87.498266</ele>
        <time>2024-07-31T22:08:24.047Z</time>
      </trkpt>
      <trkpt lat="54.37764" lon="17.29303">
        <ele>87.442959</ele>
        <time>2024-07-31T22:08:25.372Z</time>
      </trkpt>
      <trkpt lat="54.37806" lon="17.29367">
        <ele>85.08592</ele>
        <time>2024-07-31T22:08:33.439Z</time>
      </trkpt>
      <trkpt lat="54.37839" lon="17.29422">
        <ele>82.975964</ele>
        <time>2024-07-31T22:08:39.505Z</time>
      </trkpt>
      <trkpt lat="54.37856" lon="17.29445">
        <ele>81.949905</ele>
        <time>2024-07-31T22:08:42.355Z</time>
      </trkpt>
      <trkpt lat="54.37868" lon="17.29461">
        <ele>81.231752</ele>
        <time>2024-07-31T22:08:44.331Z</time>
      </trkpt>
      <trkpt lat="54.379" lon="17.2949">
        <ele>79.560408</ele>
        <time>2024-07-31T22:08:48.907Z</time>
      </trkpt>
      <trkpt lat="54.38017" lon="17.29563">
        <ele>73.09079</ele>
        <time>2024-07-31T22:09:04.912Z</time>
      </trkpt>
      <trkpt lat="54.38064" lon="17.29605">
        <ele>70.313793</ele>
        <time>2024-07-31T22:09:12.019Z</time>
      </trkpt>
      <trkpt lat="54.38122" lon="17.29667">
        <ele>68.884508</ele>
        <time>2024-07-31T22:09:21.770Z</time>
      </trkpt>
      <trkpt lat="54.38148" lon="17.29699">
        <ele>68.468984</ele>
        <time>2024-07-31T22:09:26.899Z</time>
      </trkpt>
      <trkpt lat="54.38158" lon="17.29717">
        <ele>68.277835</ele>
        <time>2024-07-31T22:09:29.512Z</time>
      </trkpt>
      <trkpt lat="54.38164" lon="17.2974">
        <ele>68.081222</ele>
        <time>2024-07-31T22:09:32.411Z</time>
      </trkpt>
      <trkpt lat="54.38168" lon="17.29763">
        <ele>67.894302</ele>
        <time>2024-07-31T22:09:35.122Z</time>
      </trkpt>
      <trkpt lat="54.38169" lon="17.29848">
        <ele>67.245467</ele>
        <time>2024-07-31T22:09:46.260Z</time>
      </trkpt>
      <trkpt lat="54.38172" lon="17.29976">
        <ele>67.740253</ele>
        <time>2024-07-31T22:10:03.825Z</time>
      </trkpt>
      <trkpt lat="54.38172" lon="17.30036">
        <ele>67.979887</ele>
        <time>2024-07-31T22:10:12.228Z</time>
      </trkpt>
      <trkpt lat="54.38162" lon="17.30092">
        <ele>68.210292</ele>
        <time>2024-07-31T22:10:20.907Z</time>
      </trkpt>
      <trkpt lat="54.38128" lon="17.30205">
        <ele>68.946088</ele>
        <time>2024-07-31T22:10:41.258Z</time>
      </trkpt>
      <trkpt lat="54.3812" lon="17.30248">
        <ele>69.281096</ele>
        <time>2024-07-31T22:10:48.134Z</time>
      </trkpt>
      <trkpt lat="54.3812" lon="17.30291">
        <ele>69.60113</ele>
        <time>2024-07-31T22:10:54.813Z</time>
      </trkpt>
      <trkpt lat="54.38136" lon="17.3049">
        <ele>71.064003</ele>
        <time>2024-07-31T22:11:29.244Z</time>
      </trkpt>
      <trkpt lat="54.38156" lon="17.30758">
        <ele>72.785235</ele>
        <time>2024-07-31T22:12:12.737Z</time>
      </trkpt>
      <trkpt lat="54.38157" lon="17.30856">
        <ele>72.485861</ele>
        <time>2024-07-31T22:12:23.541Z</time>
      </trkpt>
      <trkpt lat="54.38152" lon="17.30987">
        <ele>72.080404</ele>
        <time>2024-07-31T22:12:36.772Z</time>
      </trkpt>
      <trkpt lat="54.38132" lon="17.31104">
        <ele>71.839784</ele>
        <time>2024-07-31T22:12:48.812Z</time>
      </trkpt>
      <trkpt lat="54.38125" lon="17.31225">
        <ele>71.804979</ele>
        <time>2024-07-31T22:13:02.734Z</time>
      </trkpt>
      <trkpt lat="54.38129" lon="17.31283">
        <ele>71.788308</ele>
        <time>2024-07-31T22:13:10.763Z</time>
      </trkpt>
      <trkpt lat="54.38136" lon="17.31336">
        <ele>71.773086</ele>
        <time>2024-07-31T22:13:18.563Z</time>
      </trkpt>
      <trkpt lat="54.38158" lon="17.31412">
        <ele>71.657137</ele>
        <time>2024-07-31T22:13:30.489Z</time>
      </trkpt>
      <trkpt lat="54.38166" lon="17.31453">
        <ele>71.576841</ele>
        <time>2024-07-31T22:13:35.971Z</time>
      </trkpt>
      <trkpt lat="54.3817" lon="17.31489">
        <ele>71.508044</ele>
        <time>2024-07-31T22:13:40.426Z</time>
      </trkpt>
      <trkpt lat="54.38172" lon="17.31577">
        <ele>71.343074</ele>
        <time>2024-07-31T22:13:50.152Z</time>
      </trkpt>
      <trkpt lat="54.38165" lon="17.31669">
        <ele>71.117177</ele>
        <time>2024-07-31T22:13:59.165Z</time>
      </trkpt>
      <trkpt lat="54.38164" lon="17.31716">
        <ele>70.758348</ele>
        <time>2024-07-31T22:14:03.566Z</time>
      </trkpt>
      <trkpt lat="54.38167" lon="17.31937">
        <ele>69.078621</ele>
        <time>2024-07-31T22:14:24.170Z</time>
      </trkpt>
      <trkpt lat="54.38166" lon="17.31991">
        <ele>68.862791</ele>
        <time>2024-07-31T22:14:29.745Z</time>
      </trkpt>
      <trkpt lat="54.38162" lon="17.32024">
        <ele>68.89117</ele>
        <time>2024-07-31T22:14:33.459Z</time>
      </trkpt>
      <trkpt lat="54.38153" lon="17.32063">
        <ele>68.926508</ele>
        <time>2024-07-31T22:14:38.215Z</time>
      </trkpt>
      <trkpt lat="54.38105" lon="17.32228">
        <ele>69.080913</ele>
        <time>2024-07-31T22:15:02.862Z</time>
      </trkpt>
      <trkpt lat="54.38049" lon="17.32455">
        <ele>70.495229</ele>
        <time>2024-07-31T22:15:41.972Z</time>
      </trkpt>
      <trkpt lat="54.3797" lon="17.32795">
        <ele>72.265679</ele>
        <time>2024-07-31T22:16:39.414Z</time>
      </trkpt>
      <trkpt lat="54.37951" lon="17.32879">
        <ele>72.106537</ele>
        <time>2024-07-31T22:16:48.903Z</time>
      </trkpt>
      <trkpt lat="54.37944" lon="17.32919">
        <ele>71.89974</ele>
        <time>2024-07-31T22:16:53.027Z</time>
      </trkpt>
      <trkpt lat="54.37927" lon="17.3311">
        <ele>70.94322</ele>
        <time>2024-07-31T22:17:11.470Z</time>
      </trkpt>
      <trkpt lat="54.37926" lon="17.33162">
        <ele>70.913943</ele>
        <time>2024-07-31T22:17:16.543Z</time>
      </trkpt>
      <trkpt lat="54.37931" lon="17.3354">
        <ele>72.054315</ele>
        <time>2024-07-31T22:18:08.442Z</time>
      </trkpt>
      <trkpt lat="54.37959" lon="17.33973">
        <ele>75.899267</ele>
        <time>2024-07-31T22:19:26.841Z</time>
      </trkpt>
      <trkpt lat="54.3797" lon="17.34148">
        <ele>77.776662</ele>
        <time>2024-07-31T22:19:55.590Z</time>
      </trkpt>
      <trkpt lat="54.37979" lon="17.34233">
        <ele>78.755378</ele>
        <time>2024-07-31T22:20:10.570Z</time>
      </trkpt>
      <trkpt lat="54.37999" lon="17.34357">
        <ele>80.273599</ele>
        <time>2024-07-31T22:20:35.797Z</time>
      </trkpt>
      <trkpt lat="54.38014" lon="17.34454">
        <ele>82.42119</ele>
        <time>2024-07-31T22:20:59.270Z</time>
      </trkpt>
      <trkpt lat="54.38047" lon="17.34672">
        <ele>87.148918</ele>
        <time>2024-07-31T22:21:56.354Z</time>
      </trkpt>
      <trkpt lat="54.38056" lon="17.34716">
        <ele>88.04514</ele>
        <time>2024-07-31T22:22:08.206Z</time>
      </trkpt>
      <trkpt lat="54.38068" lon="17.34758">
        <ele>88.929778</ele>
        <time>2024-07-31T22:22:19.734Z</time>
      </trkpt>
      <trkpt lat="54.38182" lon="17.35066">
        <ele>94.730943</ele>
        <time>2024-07-31T22:23:37.371Z</time>
      </trkpt>
      <trkpt lat="54.38196" lon="17.35124">
        <ele>95.518246</ele>
        <time>2024-07-31T22:23:48.388Z</time>
      </trkpt>
      <trkpt lat="54.382" lon="17.3517">
        <ele>96.113139</ele>
        <time>2024-07-31T22:23:56.360Z</time>
      </trkpt>
      <trkpt lat="54.38213" lon="17.35489">
        <ele>97.719531</ele>
        <time>2024-07-31T22:24:42.717Z</time>
      </trkpt>
      <trkpt lat="54.38216" lon="17.35612">
        <ele>98.077495</ele>
        <time>2024-07-31T22:24:59.367Z</time>
      </trkpt>
      <trkpt lat="54.38218" lon="17.35761">
        <ele>98.477098</ele>
        <time>2024-07-31T22:25:19.531Z</time>
      </trkpt>
      <trkpt lat="54.38215" lon="17.35878">
        <ele>98.649833</ele>
        <time>2024-07-31T22:25:35.146Z</time>
      </trkpt>
      <trkpt lat="54.382" lon="17.36009">
        <ele>98.716585</ele>
        <time>2024-07-31T22:25:52.545Z</time>
      </trkpt>
      <trkpt lat="54.38122" lon="17.36548">
        <ele>98.361897</ele>
        <time>2024-07-31T22:26:54.500Z</time>
      </trkpt>
      <trkpt lat="54.38121" lon="17.36577">
        <ele>98.403556</ele>
        <time>2024-07-31T22:26:58.135Z</time>
      </trkpt>
      <trkpt lat="54.38127" lon="17.36635">
        <ele>98.484979</ele>
        <time>2024-07-31T22:27:06.438Z</time>
      </trkpt>
      <trkpt lat="54.38148" lon="17.3678">
        <ele>99.300618</ele>
        <time>2024-07-31T22:27:27.868Z</time>
      </trkpt>
      <trkpt lat="54.38178" lon="17.36845">
        <ele>100.195598</ele>
        <time>2024-07-31T22:27:42.545Z</time>
      </trkpt>
      <trkpt lat="54.3818" lon="17.36864">
        <ele>100.396465</ele>
        <time>2024-07-31T22:27:46.571Z</time>
      </trkpt>
      <trkpt lat="54.38177" lon="17.36885">
        <ele>100.62893</ele>
        <time>2024-07-31T22:27:50.944Z</time>
      </trkpt>
      <trkpt lat="54.38168" lon="17.36906">
        <ele>100.90405</ele>
        <time>2024-07-31T22:27:56.218Z</time>
      </trkpt>
      <trkpt lat="54.38147" lon="17.36942">
        <ele>101.465454</ele>
        <time>2024-07-31T22:28:07.086Z</time>
      </trkpt>
      <trkpt lat="54.38138" lon="17.36963">
        <ele>101.73868</ele>
        <time>2024-07-31T22:28:12.698Z</time>
      </trkpt>
      <trkpt lat="54.3813" lon="17.36993">
        <ele>101.98121</ele>
        <time>2024-07-31T22:28:19.122Z</time>
      </trkpt>
      <trkpt lat="54.38123" lon="17.37086">
        <ele>102.380291</ele>
        <time>2024-07-31T22:28:36.412Z</time>
      </trkpt>
      <trkpt lat="54.38124" lon="17.37278">
        <ele>103.202849</ele>
        <time>2024-07-31T22:29:00.857Z</time>
      </trkpt>
      <trkpt lat="54.38123" lon="17.3731">
        <ele>103.100714</ele>
        <time>2024-07-31T22:29:04.042Z</time>
      </trkpt>
      <trkpt lat="54.38118" lon="17.37341">
        <ele>102.940416</ele>
        <time>2024-07-31T22:29:07.203Z</time>
      </trkpt>
      <trkpt lat="54.38111" lon="17.37366">
        <ele>102.807984</ele>
        <time>2024-07-31T22:29:09.640Z</time>
      </trkpt>
      <trkpt lat="54.38092" lon="17.37406">
        <ele>102.55327</ele>
        <time>2024-07-31T22:29:14.315Z</time>
      </trkpt>
      <trkpt lat="54.37987" lon="17.37549">
        <ele>102.076299</ele>
        <time>2024-07-31T22:29:37.872Z</time>
      </trkpt>
      <trkpt lat="54.3797" lon="17.37578">
        <ele>102.344044</ele>
        <time>2024-07-31T22:29:44.640Z</time>
      </trkpt>
      <trkpt lat="54.37948" lon="17.37633">
        <ele>102.783397</ele>
        <time>2024-07-31T22:29:56.704Z</time>
      </trkpt>
      <trkpt lat="54.37942" lon="17.37659">
        <ele>102.968771</ele>
        <time>2024-07-31T22:30:01.803Z</time>
      </trkpt>
      <trkpt lat="54.37917" lon="17.37786">
        <ele>103.741456</ele>
        <time>2024-07-31T22:30:26.103Z</time>
      </trkpt>
      <trkpt lat="54.37895" lon="17.3786">
        <ele>103.850615</ele>
        <time>2024-07-31T22:30:40.654Z</time>
      </trkpt>
      <trkpt lat="54.37766" lon="17.38228">
        <ele>103.284133</ele>
        <time>2024-07-31T22:31:26.572Z</time>
      </trkpt>
      <trkpt lat="54.37694" lon="17.38481">
        <ele>101.853832</ele>
        <time>2024-07-31T22:31:55.058Z</time>
      </trkpt>
      <trkpt lat="54.37674" lon="17.38539">
        <ele>101.467662</ele>
        <time>2024-07-31T22:32:01.882Z</time>
      </trkpt>
      <trkpt lat="54.37657" lon="17.3861">
        <ele>100.937574</ele>
        <time>2024-07-31T22:32:09.349Z</time>
      </trkpt>
      <trkpt lat="54.37645" lon="17.3865">
        <ele>100.550631</ele>
        <time>2024-07-31T22:32:13.654Z</time>
      </trkpt>
      <trkpt lat="54.37618" lon="17.3874">
        <ele>99.675015</ele>
        <time>2024-07-31T22:32:23.042Z</time>
      </trkpt>
      <trkpt lat="54.37561" lon="17.38941">
        <ele>98.232062</ele>
        <time>2024-07-31T22:32:43.722Z</time>
      </trkpt>
      <trkpt lat="54.37541" lon="17.39012">
        <ele>97.973457</ele>
        <time>2024-07-31T22:32:51.646Z</time>
      </trkpt>
      <trkpt lat="54.37538" lon="17.39026">
        <ele>97.922994</ele>
        <time>2024-07-31T22:32:53.499Z</time>
      </trkpt>
      <trkpt lat="54.37519" lon="17.39074">
        <ele>97.732812</ele>
        <time>2024-07-31T22:33:00.129Z</time>
      </trkpt>
      <trkpt lat="54.37506" lon="17.39093">
        <ele>97.637003</ele>
        <time>2024-07-31T22:33:03.761Z</time>
      </trkpt>
      <trkpt lat="54.3749" lon="17.39109">
        <ele>97.532418</ele>
        <time>2024-07-31T22:33:08.151Z</time>
      </trkpt>
      <trkpt lat="54.37419" lon="17.39166">
        <ele>98.526839</ele>
        <time>2024-07-31T22:33:29.646Z</time>
      </trkpt>
      <trkpt lat="54.37385" lon="17.39198">
        <ele>99.046968</ele>
        <time>2024-07-31T22:33:41.217Z</time>
      </trkpt>
      <trkpt lat="54.37332" lon="17.39249">
        <ele>99.852526</ele>
        <time>2024-07-31T22:33:59.768Z</time>
      </trkpt>
      <trkpt lat="54.37294" lon="17.39282">
        <ele>100.316969</ele>
        <time>2024-07-31T22:34:12.435Z</time>
      </trkpt>
      <trkpt lat="54.37278" lon="17.39293">
        <ele>100.499368</ele>
        <time>2024-07-31T22:34:17.533Z</time>
      </trkpt>
      <trkpt lat="54.3722" lon="17.39337">
        <ele>101.18368</ele>
        <time>2024-07-31T22:34:34.918Z</time>
      </trkpt>
      <trkpt lat="54.37203" lon="17.3935">
        <ele>101.384058</ele>
        <time>2024-07-31T22:34:39.645Z</time>
      </trkpt>
      <trkpt lat="54.37167" lon="17.3939">
        <ele>101.834941</ele>
        <time>2024-07-31T22:34:49.616Z</time>
      </trkpt>
      <trkpt lat="54.37155" lon="17.39406">
        <ele>101.86808</ele>
        <time>2024-07-31T22:34:53.217Z</time>
      </trkpt>
      <trkpt lat="54.37127" lon="17.39441">
        <ele>101.941373</ele>
        <time>2024-07-31T22:35:00.501Z</time>
      </trkpt>
      <trkpt lat="54.37105" lon="17.39461">
        <ele>101.994227</ele>
        <time>2024-07-31T22:35:05.848Z</time>
      </trkpt>
      <trkpt lat="54.37027" lon="17.39513">
        <ele>102.174373</ele>
        <time>2024-07-31T22:35:24.583Z</time>
      </trkpt>
      <trkpt lat="54.37007" lon="17.39538">
        <ele>102.210758</ele>
        <time>2024-07-31T22:35:29.547Z</time>
      </trkpt>
      <trkpt lat="54.36991" lon="17.39571">
        <ele>102.161535</ele>
        <time>2024-07-31T22:35:34.539Z</time>
      </trkpt>
      <trkpt lat="54.36977" lon="17.39609">
        <ele>102.110083</ele>
        <time>2024-07-31T22:35:39.762Z</time>
      </trkpt>
      <trkpt lat="54.36817" lon="17.40186">
        <ele>101.150081</ele>
        <time>2024-07-31T22:36:52.237Z</time>
      </trkpt>
      <trkpt lat="54.36748" lon="17.40431">
        <ele>100.555599</ele>
        <time>2024-07-31T22:37:22.441Z</time>
      </trkpt>
      <trkpt lat="54.36666" lon="17.40785">
        <ele>99.314915</ele>
        <time>2024-07-31T22:38:03.465Z</time>
      </trkpt>
      <trkpt lat="54.36559" lon="17.41262">
        <ele>96.071682</ele>
        <time>2024-07-31T22:38:55.266Z</time>
      </trkpt>
      <trkpt lat="54.36549" lon="17.41344">
        <ele>94.620645</ele>
        <time>2024-07-31T22:39:02.440Z</time>
      </trkpt>
      <trkpt lat="54.36515" lon="17.41713">
        <ele>87.428858</ele>
        <time>2024-07-31T22:39:32.336Z</time>
      </trkpt>
      <trkpt lat="54.36479" lon="17.42135">
        <ele>79.666965</ele>
        <time>2024-07-31T22:40:07.696Z</time>
      </trkpt>
      <trkpt lat="54.3646" lon="17.42316">
        <ele>78.247852</ele>
        <time>2024-07-31T22:40:24.862Z</time>
      </trkpt>
      <trkpt lat="54.36451" lon="17.42355">
        <ele>77.929173</ele>
        <time>2024-07-31T22:40:29.060Z</time>
      </trkpt>
      <trkpt lat="54.36439" lon="17.42395">
        <ele>77.578942</ele>
        <time>2024-07-31T22:40:33.806Z</time>
      </trkpt>
      <trkpt lat="54.36346" lon="17.42671">
        <ele>77.447867</ele>
        <time>2024-07-31T22:41:12.381Z</time>
      </trkpt>
      <trkpt lat="54.36238" lon="17.42957">
        <ele>79.186262</ele>
        <time>2024-07-31T22:42:03.041Z</time>
      </trkpt>
      <trkpt lat="54.36234" lon="17.42969">
        <ele>79.449619</ele>
        <time>2024-07-31T22:42:05.281Z</time>
      </trkpt>
      <trkpt lat="54.36235" lon="17.4298">
        <ele>79.676176</ele>
        <time>2024-07-31T22:42:07.412Z</time>
      </trkpt>
      <trkpt lat="54.3624" lon="17.42992">
        <ele>79.960744</ele>
        <time>2024-07-31T22:42:10.054Z</time>
      </trkpt>
      <trkpt lat="54.36256" lon="17.43013">
        <ele>80.634006</ele>
        <time>2024-07-31T22:42:16.137Z</time>
      </trkpt>
      <trkpt lat="54.36271" lon="17.43064">
        <ele>81.729326</ele>
        <time>2024-07-31T22:42:26.701Z</time>
      </trkpt>
      <trkpt lat="54.36539" lon="17.44602">
        <ele>112.486217</ele>
        <time>2024-07-31T22:48:43.662Z</time>
      </trkpt>
      <trkpt lat="54.3673" lon="17.45756">
        <ele>129.155475</ele>
        <time>2024-07-31T22:52:46.441Z</time>
      </trkpt>
      <trkpt lat="54.36735" lon="17.45826">
        <ele>129.652785</ele>
        <time>2024-07-31T22:52:55.410Z</time>
      </trkpt>
      <trkpt lat="54.36729" lon="17.45928">
        <ele>130.012881</ele>
        <time>2024-07-31T22:53:06.793Z</time>
      </trkpt>
      <trkpt lat="54.3667" lon="17.46527">
        <ele>126.755698</ele>
        <time>2024-07-31T22:54:07.493Z</time>
      </trkpt>
      <trkpt lat="54.36651" lon="17.46682">
        <ele>125.966809</ele>
        <time>2024-07-31T22:54:23.664Z</time>
      </trkpt>
      <trkpt lat="54.36571" lon="17.4702">
        <ele>124.074727</ele>
        <time>2024-07-31T22:55:00.647Z</time>
      </trkpt>
      <trkpt lat="54.36429" lon="17.47633">
        <ele>120.444204</ele>
        <time>2024-07-31T22:56:06.803Z</time>
      </trkpt>
      <trkpt lat="54.36415" lon="17.4771">
        <ele>120.222541</ele>
        <time>2024-07-31T22:56:15.018Z</time>
      </trkpt>
      <trkpt lat="54.36404" lon="17.47802">
        <ele>120.128531</ele>
        <time>2024-07-31T22:56:24.935Z</time>
      </trkpt>
      <trkpt lat="54.36358" lon="17.4917">
        <ele>118.651663</ele>
        <time>2024-07-31T22:59:07.002Z</time>
      </trkpt>
      <trkpt lat="54.36361" lon="17.4922">
        <ele>118.480385</ele>
        <time>2024-07-31T22:59:12.080Z</time>
      </trkpt>
      <trkpt lat="54.36367" lon="17.4927">
        <ele>118.152618</ele>
        <time>2024-07-31T22:59:17.081Z</time>
      </trkpt>
      <trkpt lat="54.36378" lon="17.49326">
        <ele>117.774908</ele>
        <time>2024-07-31T22:59:22.648Z</time>
      </trkpt>
      <trkpt lat="54.36439" lon="17.49568">
        <ele>116.74483</ele>
        <time>2024-07-31T22:59:48.123Z</time>
      </trkpt>
      <trkpt lat="54.3661" lon="17.5025">
        <ele>117.975116</ele>
        <time>2024-07-31T23:01:29.909Z</time>
      </trkpt>
      <trkpt lat="54.36668" lon="17.50481">
        <ele>119.318977</ele>
        <time>2024-07-31T23:02:02.243Z</time>
      </trkpt>
      <trkpt lat="54.36655" lon="17.50512">
        <ele>119.596219</ele>
        <time>2024-07-31T23:02:09.196Z</time>
      </trkpt>
      <trkpt lat="54.36626" lon="17.50637">
        <ele>120.746591</ele>
        <time>2024-07-31T23:02:34.975Z</time>
      </trkpt>
      <trkpt lat="54.36605" lon="17.50727">
        <ele>122.467721</ele>
        <time>2024-07-31T23:02:56.043Z</time>
      </trkpt>
      <trkpt lat="54.36509" lon="17.51127">
        <ele>129.893147</ele>
        <time>2024-07-31T23:04:34.680Z</time>
      </trkpt>
      <trkpt lat="54.36483" lon="17.51239">
        <ele>131.392649</ele>
        <time>2024-07-31T23:04:56.937Z</time>
      </trkpt>
      <trkpt lat="54.36231" lon="17.5231">
        <ele>137.711603</ele>
        <time>2024-07-31T23:07:53.488Z</time>
      </trkpt>
      <trkpt lat="54.35922" lon="17.544">
        <ele>121.343828</ele>
        <time>2024-07-31T23:11:18.217Z</time>
      </trkpt>
      <trkpt lat="54.35892" lon="17.54597">
        <ele>121.584647</ele>
        <time>2024-07-31T23:11:43.711Z</time>
      </trkpt>
      <trkpt lat="54.35844" lon="17.54933">
        <ele>123.442071</ele>
        <time>2024-07-31T23:12:38.948Z</time>
      </trkpt>
      <trkpt lat="54.3578" lon="17.55371">
        <ele>126.599047</ele>
        <time>2024-07-31T23:13:52.635Z</time>
      </trkpt>
      <trkpt lat="54.35755" lon="17.55539">
        <ele>127.302172</ele>
        <time>2024-07-31T23:14:18.035Z</time>
      </trkpt>
      <trkpt lat="54.35743" lon="17.55618">
        <ele>127.63396</ele>
        <time>2024-07-31T23:14:28.896Z</time>
      </trkpt>
      <trkpt lat="54.35741" lon="17.55633">
        <ele>127.683386</ele>
        <time>2024-07-31T23:14:30.742Z</time>
      </trkpt>
      <trkpt lat="54.35727" lon="17.55726">
        <ele>127.429831</ele>
        <time>2024-07-31T23:14:42.469Z</time>
      </trkpt>
      <trkpt lat="54.35693" lon="17.5596">
        <ele>126.693327</ele>
        <time>2024-07-31T23:15:07.586Z</time>
      </trkpt>
      <trkpt lat="54.35683" lon="17.56026">
        <ele>126.284666</ele>
        <time>2024-07-31T23:15:14.349Z</time>
      </trkpt>
      <trkpt lat="54.35649" lon="17.56253">
        <ele>125.028421</ele>
        <time>2024-07-31T23:15:37.071Z</time>
      </trkpt>
      <trkpt lat="54.35643" lon="17.56282">
        <ele>125.039541</ele>
        <time>2024-07-31T23:15:40.356Z</time>
      </trkpt>
      <trkpt lat="54.35637" lon="17.56322">
        <ele>125.054192</ele>
        <time>2024-07-31T23:15:45.009Z</time>
      </trkpt>
      <trkpt lat="54.35634" lon="17.56337">
        <ele>125.05987</ele>
        <time>2024-07-31T23:15:46.985Z</time>
      </trkpt>
      <trkpt lat="54.35632" lon="17.56352">
        <ele>125.065275</ele>
        <time>2024-07-31T23:15:48.666Z</time>
      </trkpt>
      <trkpt lat="54.35621" lon="17.56426">
        <ele>125.092594</ele>
        <time>2024-07-31T23:15:58.683Z</time>
      </trkpt>
      <trkpt lat="54.35615" lon="17.56445">
        <ele>125.100472</ele>
        <time>2024-07-31T23:16:02.088Z</time>
      </trkpt>
      <trkpt lat="54.35613" lon="17.56446">
        <ele>125.101807</ele>
        <time>2024-07-31T23:16:02.655Z</time>
      </trkpt>
      <trkpt lat="54.35606" lon="17.5646">
        <ele>125.108383</ele>
        <time>2024-07-31T23:16:05.054Z</time>
      </trkpt>
      <trkpt lat="54.35606" lon="17.56472">
        <ele>125.11239</ele>
        <time>2024-07-31T23:16:06.617Z</time>
      </trkpt>
      <trkpt lat="54.35609" lon="17.56481">
        <ele>125.116432</ele>
        <time>2024-07-31T23:16:08.357Z</time>
      </trkpt>
      <trkpt lat="54.35614" lon="17.56488">
        <ele>125.120433</ele>
        <time>2024-07-31T23:16:10.245Z</time>
      </trkpt>
      <trkpt lat="54.35623" lon="17.56488">
        <ele>125.125397</ele>
        <time>2024-07-31T23:16:12.335Z</time>
      </trkpt>
      <trkpt lat="54.35626" lon="17.56484">
        <ele>125.127953</ele>
        <time>2024-07-31T23:16:13.172Z</time>
      </trkpt>
      <trkpt lat="54.3564" lon="17.56484">
        <ele>125.146725</ele>
        <time>2024-07-31T23:16:16.285Z</time>
      </trkpt>
      <trkpt lat="54.35654" lon="17.56492">
        <ele>125.17285</ele>
        <time>2024-07-31T23:16:20.615Z</time>
      </trkpt>
      <trkpt lat="54.35659" lon="17.56494">
        <ele>125.180922</ele>
        <time>2024-07-31T23:16:21.633Z</time>
      </trkpt>
      <trkpt lat="54.35676" lon="17.56516">
        <ele>125.216534</ele>
        <time>2024-07-31T23:16:26.716Z</time>
      </trkpt>
      <trkpt lat="54.35703" lon="17.5657">
        <ele>125.286438</ele>
        <time>2024-07-31T23:16:36.679Z</time>
      </trkpt>
      <trkpt lat="54.35699" lon="17.56575">
        <ele>125.294804</ele>
        <time>2024-07-31T23:16:44.582Z</time>
      </trkpt>
      <trkpt lat="54.35691" lon="17.56585">
        <ele>125.311718</ele>
        <time>2024-07-31T23:16:59.841Z</time>
      </trkpt>
      <trkpt lat="54.35672" lon="17.56608">
        <ele>125.350594</ele>
        <time>2024-07-31T23:17:12.328Z</time>
      </trkpt>
      <trkpt lat="54.35691" lon="17.56585">
        <ele>125.38947</ele>
        <time>2024-07-31T23:17:24.046Z</time>
      </trkpt>
      <trkpt lat="54.35699" lon="17.56575">
        <ele>125.406384</ele>
        <time>2024-07-31T23:17:39.869Z</time>
      </trkpt>
      <trkpt lat="54.35703" lon="17.5657">
        <ele>125.414751</ele>
        <time>2024-07-31T23:17:47.674Z</time>
      </trkpt>
      <trkpt lat="54.35676" lon="17.56516">
        <ele>125.096237</ele>
        <time>2024-07-31T23:17:54.994Z</time>
      </trkpt>
      <trkpt lat="54.35659" lon="17.56494">
        <ele>124.869333</ele>
        <time>2024-07-31T23:17:58.504Z</time>
      </trkpt>
      <trkpt lat="54.35641" lon="17.56473">
        <ele>124.637743</ele>
        <time>2024-07-31T23:18:01.964Z</time>
      </trkpt>
      <trkpt lat="54.35631" lon="17.56462">
        <ele>124.508879</ele>
        <time>2024-07-31T23:18:03.921Z</time>
      </trkpt>
      <trkpt lat="54.35629" lon="17.56453">
        <ele>124.443764</ele>
        <time>2024-07-31T23:18:04.947Z</time>
      </trkpt>
      <trkpt lat="54.35622" lon="17.56445">
        <ele>124.356617</ele>
        <time>2024-07-31T23:18:06.258Z</time>
      </trkpt>
      <trkpt lat="54.35615" lon="17.56445">
        <ele>124.285994</ele>
        <time>2024-07-31T23:18:07.299Z</time>
      </trkpt>
      <trkpt lat="54.35613" lon="17.56446">
        <ele>124.262682</ele>
        <time>2024-07-31T23:18:07.654Z</time>
      </trkpt>
      <trkpt lat="54.35603" lon="17.56435">
        <ele>124.133217</ele>
        <time>2024-07-31T23:18:09.610Z</time>
      </trkpt>
      <trkpt lat="54.35585" lon="17.56414">
        <ele>123.905491</ele>
        <time>2024-07-31T23:18:13.121Z</time>
      </trkpt>
      <trkpt lat="54.35582" lon="17.56409">
        <ele>123.855081</ele>
        <time>2024-07-31T23:18:13.896Z</time>
      </trkpt>
      <trkpt lat="54.35545" lon="17.5635">
        <ele>123.41558</ele>
        <time>2024-07-31T23:18:22.505Z</time>
      </trkpt>
      <trkpt lat="54.35525" lon="17.56326">
        <ele>123.290045</ele>
        <time>2024-07-31T23:18:26.853Z</time>
      </trkpt>
      <trkpt lat="54.35487" lon="17.56293">
        <ele>123.068462</ele>
        <time>2024-07-31T23:18:35.127Z</time>
      </trkpt>
      <trkpt lat="54.35477" lon="17.56288">
        <ele>123.017278</ele>
        <time>2024-07-31T23:18:37.049Z</time>
      </trkpt>
      <trkpt lat="54.35391" lon="17.5625">
        <ele>122.57037</ele>
        <time>2024-07-31T23:18:53.663Z</time>
      </trkpt>
      <trkpt lat="54.35383" lon="17.56247">
        <ele>122.556243</ele>
        <time>2024-07-31T23:18:55.303Z</time>
      </trkpt>
      <trkpt lat="54.35375" lon="17.56244">
        <ele>122.541538</ele>
        <time>2024-07-31T23:18:57.131Z</time>
      </trkpt>
      <trkpt lat="54.35354" lon="17.56235">
        <ele>122.504263</ele>
        <time>2024-07-31T23:19:01.355Z</time>
      </trkpt>
      <trkpt lat="54.35311" lon="17.56216">
        <ele>122.427148</ele>
        <time>2024-07-31T23:19:10.371Z</time>
      </trkpt>
      <trkpt lat="54.35288" lon="17.56201">
        <ele>122.384293</ele>
        <time>2024-07-31T23:19:15.272Z</time>
      </trkpt>
      <trkpt lat="54.35247" lon="17.56162">
        <ele>122.302526</ele>
        <time>2024-07-31T23:19:24.778Z</time>
      </trkpt>
      <trkpt lat="54.35205" lon="17.56101">
        <ele>122.259185</ele>
        <time>2024-07-31T23:19:35.353Z</time>
      </trkpt>
      <trkpt lat="54.35188" lon="17.56084">
        <ele>122.255864</ele>
        <time>2024-07-31T23:19:39.757Z</time>
      </trkpt>
      <trkpt lat="54.35139" lon="17.56054">
        <ele>122.246909</ele>
        <time>2024-07-31T23:19:50.931Z</time>
      </trkpt>
      <trkpt lat="54.35076" lon="17.56019">
        <ele>122.235617</ele>
        <time>2024-07-31T23:20:05.013Z</time>
      </trkpt>
      <trkpt lat="54.35058" lon="17.56006">
        <ele>122.235012</ele>
        <time>2024-07-31T23:20:08.909Z</time>
      </trkpt>
      <trkpt lat="54.35041" lon="17.5599">
        <ele>122.236568</ele>
        <time>2024-07-31T23:20:13.285Z</time>
      </trkpt>
      <trkpt lat="54.35033" lon="17.56019">
        <ele>122.238006</ele>
        <time>2024-07-31T23:20:16.451Z</time>
      </trkpt>
      <trkpt lat="54.35018" lon="17.56078">
        <ele>122.240964</ele>
        <time>2024-07-31T23:20:23.266Z</time>
      </trkpt>
      <trkpt lat="54.35009" lon="17.56115">
        <ele>122.242812</ele>
        <time>2024-07-31T23:20:27.984Z</time>
      </trkpt>
      <trkpt lat="54.34995" lon="17.56177">
        <ele>122.245846</ele>
        <time>2024-07-31T23:20:36.279Z</time>
      </trkpt>
      <trkpt lat="54.34994" lon="17.56208">
        <ele>122.247273</ele>
        <time>2024-07-31T23:20:40.458Z</time>
      </trkpt>
      <trkpt lat="54.34998" lon="17.56235">
        <ele>122.298958</ele>
        <time>2024-07-31T23:20:44.591Z</time>
      </trkpt>
      <trkpt lat="54.35025" lon="17.5632">
        <ele>123.064235</ele>
        <time>2024-07-31T23:20:59.212Z</time>
      </trkpt>
      <trkpt lat="54.34973" lon="17.56413">
        <ele>124.097517</ele>
        <time>2024-07-31T23:21:21.785Z</time>
      </trkpt>
      <trkpt lat="54.3491" lon="17.56527">
        <ele>125.430443</ele>
        <time>2024-07-31T23:21:50.005Z</time>
      </trkpt>
      <trkpt lat="54.34897" lon="17.56547">
        <ele>125.696505</ele>
        <time>2024-07-31T23:21:55.401Z</time>
      </trkpt>
      <trkpt lat="54.34864" lon="17.56599">
        <ele>126.393921</ele>
        <time>2024-07-31T23:22:08.859Z</time>
      </trkpt>
      <trkpt lat="54.34834" lon="17.56636">
        <ele>126.964131</ele>
        <time>2024-07-31T23:22:19.175Z</time>
      </trkpt>
      <trkpt lat="54.34789" lon="17.56677">
        <ele>127.729008</ele>
        <time>2024-07-31T23:22:33.312Z</time>
      </trkpt>
      <trkpt lat="54.34706" lon="17.56726">
        <ele>128.904136</ele>
        <time>2024-07-31T23:22:57.440Z</time>
      </trkpt>
      <trkpt lat="54.34476" lon="17.5685">
        <ele>132.20816</ele>
        <time>2024-07-31T23:24:07.797Z</time>
      </trkpt>
      <trkpt lat="54.34428" lon="17.56886">
        <ele>132.856109</ele>
        <time>2024-07-31T23:24:21.197Z</time>
      </trkpt>
      <trkpt lat="54.34374" lon="17.56957">
        <ele>133.659503</ele>
        <time>2024-07-31T23:24:38.510Z</time>
      </trkpt>
      <trkpt lat="54.34198" lon="17.57241">
        <ele>137.27677</ele>
        <time>2024-07-31T23:25:49.443Z</time>
      </trkpt>
      <trkpt lat="54.33961" lon="17.57607">
        <ele>144.194722</ele>
        <time>2024-07-31T23:27:34.764Z</time>
      </trkpt>
      <trkpt lat="54.33806" lon="17.5784">
        <ele>148.998624</ele>
        <time>2024-07-31T23:28:45.128Z</time>
      </trkpt>
      <trkpt lat="54.33775" lon="17.57879">
        <ele>149.809091</ele>
        <time>2024-07-31T23:28:57.977Z</time>
      </trkpt>
      <trkpt lat="54.33751" lon="17.57896">
        <ele>150.22076</ele>
        <time>2024-07-31T23:29:06.544Z</time>
      </trkpt>
      <trkpt lat="54.33716" lon="17.57907">
        <ele>150.784282</ele>
        <time>2024-07-31T23:29:17.968Z</time>
      </trkpt>
      <trkpt lat="54.33688" lon="17.57907">
        <ele>151.224697</ele>
        <time>2024-07-31T23:29:26.443Z</time>
      </trkpt>
      <trkpt lat="54.33575" lon="17.57886">
        <ele>152.604544</ele>
        <time>2024-07-31T23:29:56.806Z</time>
      </trkpt>
      <trkpt lat="54.33539" lon="17.57888">
        <ele>152.751214</ele>
        <time>2024-07-31T23:30:05.177Z</time>
      </trkpt>
      <trkpt lat="54.33513" lon="17.57891">
        <ele>152.857111</ele>
        <time>2024-07-31T23:30:10.959Z</time>
      </trkpt>
      <trkpt lat="54.33488" lon="17.57902">
        <ele>152.965846</ele>
        <time>2024-07-31T23:30:16.897Z</time>
      </trkpt>
      <trkpt lat="54.33452" lon="17.57921">
        <ele>153.118447</ele>
        <time>2024-07-31T23:30:25.287Z</time>
      </trkpt>
      <trkpt lat="54.33424" lon="17.57945">
        <ele>153.02429</ele>
        <time>2024-07-31T23:30:32.460Z</time>
      </trkpt>
      <trkpt lat="54.33402" lon="17.57971">
        <ele>152.693493</ele>
        <time>2024-07-31T23:30:37.491Z</time>
      </trkpt>
      <trkpt lat="54.33317" lon="17.58106">
        <ele>151.211875</ele>
        <time>2024-07-31T23:30:57.013Z</time>
      </trkpt>
      <trkpt lat="54.33133" lon="17.58412">
        <ele>144.180955</ele>
        <time>2024-07-31T23:31:33.028Z</time>
      </trkpt>
      <trkpt lat="54.33116" lon="17.58439">
        <ele>143.776724</ele>
        <time>2024-07-31T23:31:36.371Z</time>
      </trkpt>
      <trkpt lat="54.33103" lon="17.58447">
        <ele>143.526338</ele>
        <time>2024-07-31T23:31:38.454Z</time>
      </trkpt>
      <trkpt lat="54.32987" lon="17.58368">
        <ele>142.230862</ele>
        <time>2024-07-31T23:32:00.727Z</time>
      </trkpt>
      <trkpt lat="54.32959" lon="17.5834">
        <ele>142.546028</ele>
        <time>2024-07-31T23:32:09.240Z</time>
      </trkpt>
      <trkpt lat="54.32939" lon="17.58313">
        <ele>142.796827</ele>
        <time>2024-07-31T23:32:16.312Z</time>
      </trkpt>
      <trkpt lat="54.32876" lon="17.58185">
        <ele>143.818364</ele>
        <time>2024-07-31T23:32:45.333Z</time>
      </trkpt>
      <trkpt lat="54.32832" lon="17.58082">
        <ele>145.01149</ele>
        <time>2024-07-31T23:33:09.468Z</time>
      </trkpt>
      <trkpt lat="54.32809" lon="17.58026">
        <ele>145.654304</ele>
        <time>2024-07-31T23:33:21.693Z</time>
      </trkpt>
      <trkpt lat="54.32781" lon="17.57962">
        <ele>146.402163</ele>
        <time>2024-07-31T23:33:34.536Z</time>
      </trkpt>
      <trkpt lat="54.32764" lon="17.57933">
        <ele>146.601803</ele>
        <time>2024-07-31T23:33:40.866Z</time>
      </trkpt>
      <trkpt lat="54.32744" lon="17.57907">
        <ele>146.684713</ele>
        <time>2024-07-31T23:33:47.277Z</time>
      </trkpt>
      <trkpt lat="54.32676" lon="17.57831">
        <ele>146.959067</ele>
        <time>2024-07-31T23:34:07.502Z</time>
      </trkpt>
      <trkpt lat="54.32666" lon="17.57822">
        <ele>146.998098</ele>
        <time>2024-07-31T23:34:09.893Z</time>
      </trkpt>
      <trkpt lat="54.32651" lon="17.57828">
        <ele>147.050273</ele>
        <time>2024-07-31T23:34:12.990Z</time>
      </trkpt>
      <trkpt lat="54.32551" lon="17.57863">
        <ele>145.670308</ele>
        <time>2024-07-31T23:34:30.628Z</time>
      </trkpt>
      <trkpt lat="54.32066" lon="17.58309">
        <ele>133.627075</ele>
        <time>2024-07-31T23:35:52.310Z</time>
      </trkpt>
      <trkpt lat="54.32034" lon="17.58339">
        <ele>132.973482</ele>
        <time>2024-07-31T23:35:57.888Z</time>
      </trkpt>
      <trkpt lat="54.3184" lon="17.58516">
        <ele>130.981466</ele>
        <time>2024-07-31T23:36:36.720Z</time>
      </trkpt>
      <trkpt lat="54.31466" lon="17.58851">
        <ele>132.376152</ele>
        <time>2024-07-31T23:38:14.650Z</time>
      </trkpt>
      <trkpt lat="54.31446" lon="17.58874">
        <ele>132.414395</ele>
        <time>2024-07-31T23:38:20.199Z</time>
      </trkpt>
      <trkpt lat="54.31124" lon="17.59352">
        <ele>133.047351</ele>
        <time>2024-07-31T23:39:51.319Z</time>
      </trkpt>
      <trkpt lat="54.31105" lon="17.5938">
        <ele>133.079934</ele>
        <time>2024-07-31T23:39:56.597Z</time>
      </trkpt>
      <trkpt lat="54.30923" lon="17.5965">
        <ele>133.359681</ele>
        <time>2024-07-31T23:40:48.298Z</time>
      </trkpt>
      <trkpt lat="54.30348" lon="17.60531">
        <ele>133.509661</ele>
        <time>2024-07-31T23:43:29.905Z</time>
      </trkpt>
      <trkpt lat="54.30337" lon="17.60546">
        <ele>133.498635</ele>
        <time>2024-07-31T23:43:32.796Z</time>
      </trkpt>
      <trkpt lat="54.30305" lon="17.6057">
        <ele>133.471599</ele>
        <time>2024-07-31T23:43:39.558Z</time>
      </trkpt>
      <trkpt lat="54.30291" lon="17.6057">
        <ele>133.461304</ele>
        <time>2024-07-31T23:43:42.021Z</time>
      </trkpt>
      <trkpt lat="54.30192" lon="17.60522">
        <ele>133.390828</ele>
        <time>2024-07-31T23:44:02.474Z</time>
      </trkpt>
      <trkpt lat="54.30161" lon="17.60508">
        <ele>133.369993</ele>
        <time>2024-07-31T23:44:08.993Z</time>
      </trkpt>
      <trkpt lat="54.29918" lon="17.60413">
        <ele>133.553163</ele>
        <time>2024-07-31T23:45:02.950Z</time>
      </trkpt>
      <trkpt lat="54.29887" lon="17.60403">
        <ele>133.510682</ele>
        <time>2024-07-31T23:45:09.617Z</time>
      </trkpt>
      <trkpt lat="54.29854" lon="17.60398">
        <ele>133.451296</ele>
        <time>2024-07-31T23:45:16.216Z</time>
      </trkpt>
      <trkpt lat="54.29687" lon="17.60401">
        <ele>133.029658</ele>
        <time>2024-07-31T23:45:48.448Z</time>
      </trkpt>
      <trkpt lat="54.29522" lon="17.60422">
        <ele>132.296335</ele>
        <time>2024-07-31T23:46:19.555Z</time>
      </trkpt>
      <trkpt lat="54.29279" lon="17.60463">
        <ele>130.944572</ele>
        <time>2024-07-31T23:47:04.769Z</time>
      </trkpt>
      <trkpt lat="54.29216" lon="17.60483">
        <ele>130.526925</ele>
        <time>2024-07-31T23:47:15.893Z</time>
      </trkpt>
      <trkpt lat="54.29165" lon="17.60499">
        <ele>130.194618</ele>
        <time>2024-07-31T23:47:24.955Z</time>
      </trkpt>
      <trkpt lat="54.29144" lon="17.605">
        <ele>130.064869</ele>
        <time>2024-07-31T23:47:28.547Z</time>
      </trkpt>
      <trkpt lat="54.29114" lon="17.60495">
        <ele>129.878119</ele>
        <time>2024-07-31T23:47:33.845Z</time>
      </trkpt>
      <trkpt lat="54.2907" lon="17.6048">
        <ele>129.597007</ele>
        <time>2024-07-31T23:47:41.881Z</time>
      </trkpt>
      <trkpt lat="54.28991" lon="17.60443">
        <ele>129.270928</ele>
        <time>2024-07-31T23:47:57.840Z</time>
      </trkpt>
      <trkpt lat="54.28978" lon="17.60445">
        <ele>129.268894</ele>
        <time>2024-07-31T23:48:00.738Z</time>
      </trkpt>
      <trkpt lat="54.28948" lon="17.604">
        <ele>129.262977</ele>
        <time>2024-07-31T23:48:08.880Z</time>
      </trkpt>
      <trkpt lat="54.28789" lon="17.60211">
        <ele>129.250094</ele>
        <time>2024-07-31T23:48:50.517Z</time>
      </trkpt>
      <trkpt lat="54.28606" lon="17.59994">
        <ele>128.993089</ele>
        <time>2024-07-31T23:49:34.869Z</time>
      </trkpt>
      <trkpt lat="54.28148" lon="17.59455">
        <ele>127.933347</ele>
        <time>2024-07-31T23:51:24.301Z</time>
      </trkpt>
      <trkpt lat="54.281" lon="17.594">
        <ele>127.891943</ele>
        <time>2024-07-31T23:51:36.088Z</time>
      </trkpt>
      <trkpt lat="54.28051" lon="17.59344">
        <ele>127.891943</ele>
        <time>2024-07-31T23:51:48.513Z</time>
      </trkpt>
      <trkpt lat="54.28022" lon="17.59316">
        <ele>127.891943</ele>
        <time>2024-07-31T23:51:55.453Z</time>
      </trkpt>
      <trkpt lat="54.28023" lon="17.59307">
        <ele>127.891943</ele>
        <time>2024-07-31T23:51:59.032Z</time>
      </trkpt>
      <trkpt lat="54.28011" lon="17.59299">
        <ele>127.891943</ele>
        <time>2024-07-31T23:52:08.455Z</time>
      </trkpt>
    </trkseg>
  </trk>
</gpx>